Aérodrome :







RETROUVEZ-NOUS SUR...

 
LOGIN :

S'inscrire | Disclaimer

   EN    FR    IT 

 









Légende :    VFR   VFR Marginal   IFR   IFR Intensif   IFR Très Intensif
Visi : 
Plafond : 
>= 8 km
>= 3000ft
5 à 8 km
1000 à 3000 ft
1500m à 5 km
500 à 1000 ft
800 à 1500m
200 à 500 ft
< 800m
< 200 ft
Symboles :   Orages  Brouillard  Fortes neiges  Fortes précipitations  Vent > 20 kt






- Altitude de l'aérodrome : 118 ft
- Code IATA : YUL


CYUL - Montréal - Pierre-Elliott-Trudeau Int.

DERNIER METAR :
  • 140800Z 13007KT 15SM OVC080 M08/M13 A3038 RMK AS8 SLP291

METARs EXPIRÉS :
  • 140700Z 13004KT 15SM OVC120 M08/M13 A3040 RMK AS8 SLP298
  • 140600Z 14007KT 15SM FEW060 BKN120 OVC200 M09/M13 A3041 RMK SC1AS5CS3 SC TR SLP301

TAF TAF CYUL
Valide du 14 à 06h jusqu'au 15 à 06h UTC


140542Z 1406/1506 13005KT P6SM OVC110
FM141200 13010KT P6SM OVC070
TEMPO 1414/1503 4SM -SN OVC040
BECMG 1415/1417 16012KT
FM150300 16010KT P6SM OVC040 RMK NXT FCST BY 140900Z
ATIS : ENG : +1 514-633-3037 FRA : +1 514-633-3034



MET'MAP, la Météo Aéronautique d'un coup d'oeil ! - Copyright ORBIFLY Décembre 2007 - Disclaimer

ORBIFLY MET'MAP TEAM :

Programmation & Développement : Alexandra Zaïnal
Conception & Développement : Baudouin d'Aumeries
Co-Programmation & Développement : Marc-Olivier Méhu
Soutien technique & logistique : Manuel Goepfert

Contact : metmap@orbifly.com




SOURCES & CREDITS :

   NOAA